Hovedside
METAR-TAF:

METAR-TAF

Lufthavner :

Trondheim, Norge

Trondheim lufthavn

breddegrad: 63-28N, lengdegrad: 010-56E, høyde over havet: 1 m

Gjeldene værobservasjon

Denne rapporten ble laget for 23 minutter siden, klokken 04:20 UTC
Vind 2 kt fra skiftende retning
Temperatur -2°C
Luftfuktighet 93%
Trykk 1005 hPa
Sikt 10 km eller mer
ingen skyer under 1500 m og ingen bygeskyer

METAR: ENVA 250420Z VRB02KT CAVOK M02/M03 Q1005 RMK WIND 670FT 07009KT

Tid: 06:43 (04:43 UTC)

Varsel

Varsel gyldig fra 25. klokken 00 UTC til 25. klokken 24 UTC
Vind 5 kt fra Øst
Sikt 10 km eller mer
ingen skyer under 1500 m og ingen bygeskyer
Sannsynlighet 30%
fra 25. klokken 00 UTC til 25. klokken 05 UTC
Brutte skyer i en høyde av 1200 ft
Sannsynlighet 40%
fra 25. klokken 10 UTC til 25. klokken 18 UTC
Få skyer i en høyde av 3000 ft, Bygeskyer.

TAF: ENVA 2500/2524 08005KT CAVOK PROB30 2500/2505 BKN012 PROB40 2510/2518 FEW030CB

Værobservasjoner og værvarsel for over 4000 flyplasser (METAR- og TAF-rapporter).

Tilgjengelige stasjoner er representert av de røde og gule prikkene på kartet.

Hold musepekeren over prikken for å se navnet på stasjonen.

Klikk så for å se værobservasjoner og -varsler.

For å forandre kartet kan du klikke på den grønne knappen med svart kryss for å zoome inn, på den grønne knappen med strek for å zoome ut, eller på de grønne pilene for å se tilstøtende kart.


METAR-TAF: